»·PEaware :: N41598 KTOA-KVNY

N41598 :: KTOA-KVNY

FLIGHT INFORMATION

Flight Status: Arrived
Operator: Privately registered:
United States
More flights under this callsign
Pilot: Alex C. (14758)
Aircraft: CIRRUS VISIONJET
(SF50)
More flights by this aircraft type
Origin: KTOA Zamperini
United States
Destination: KVNY Van Nuys
United States
More flights between these airports :: More routes between these airports
Route: SCTP2
File this flight plan on PilotEdge
Remarks: SKYHIGH INTRO
Altitude:
(Current/Filed)
5,000ft
Speed:
(Current/Filed)
240kts
Departed: 02-Dec-18 10:04 PM
Arrived: 02-Dec-18 11:34 PM
Distance/Time
Traveled:
26nm/1:29
Distance/Time
To Go:
Arrived

Flight Plot

Page will automatically refresh every two minutes.


Map Options




Map Legend


Flown Route
Filed Route
Departure Airport
Arrival Airport
Navaid (VOR, NDB)
Fix

Horizontal Profiles

Position Reports

Time Latitude Longitude Heading Altitude Ground
Speed
02-Dec-18 21:34 33.801075 -118.340641 218 107ft 0kts
02-Dec-18 21:35 33.801075 -118.340641 218 107ft 0kts
02-Dec-18 21:36 33.801075 -118.340641 218 107ft 0kts
02-Dec-18 21:37 33.801075 -118.340641 218 107ft 0kts
02-Dec-18 21:38 33.801075 -118.340641 218 107ft 0kts
02-Dec-18 21:39 33.801075 -118.340641 218 107ft 0kts
02-Dec-18 21:40 33.801075 -118.340641 218 107ft 0kts
02-Dec-18 21:41 33.801075 -118.340641 218 107ft 0kts
02-Dec-18 21:42 33.801075 -118.340641 218 107ft 0kts
02-Dec-18 21:43 33.801075 -118.340641 218 107ft 0kts
02-Dec-18 21:44 33.801075 -118.340641 218 107ft 0kts
02-Dec-18 21:45 33.801075 -118.340641 218 107ft 0kts
02-Dec-18 21:46 33.801075 -118.340641 218 107ft 0kts
02-Dec-18 21:47 33.801075 -118.340641 218 107ft 0kts
02-Dec-18 21:48 33.801012 -118.340779 274 107ft 5kts
02-Dec-18 21:49 33.801176 -118.340812 43 107ft 0kts
02-Dec-18 21:50 33.801176 -118.340812 43 107ft 0kts
02-Dec-18 21:51 33.801176 -118.340812 43 107ft 0kts
02-Dec-18 21:52 33.801176 -118.340812 43 107ft 0kts
02-Dec-18 21:53 33.801176 -118.340812 43 107ft 0kts
02-Dec-18 21:54 33.801176 -118.340812 43 107ft 0kts
02-Dec-18 21:55 33.801176 -118.340812 43 107ft 0kts
02-Dec-18 21:56 33.801176 -118.340812 43 107ft 0kts
02-Dec-18 21:57 33.801176 -118.340812 43 107ft 0kts
02-Dec-18 21:58 33.801176 -118.340812 43 107ft 0kts
02-Dec-18 21:59 33.801176 -118.340812 43 107ft 0kts
02-Dec-18 22:00 33.801176 -118.340812 43 107ft 0kts
02-Dec-18 22:01 33.801176 -118.340812 43 107ft 0kts
02-Dec-18 22:02 33.801176 -118.340812 43 107ft 0kts
02-Dec-18 22:03 33.801232 -118.340714 71 107ft 4kts
02-Dec-18 22:04 33.799858 -118.337260 130 107ft 25kts
02-Dec-18 22:05 33.798949 -118.333417 36 107ft 15kts
02-Dec-18 22:06 33.799075 -118.333304 37 107ft 1kts
02-Dec-18 22:07 33.803923 -118.339213 307 189ft 104kts
02-Dec-18 22:08 33.820688 -118.367063 301 2156ft 138kts
02-Dec-18 22:09 33.837015 -118.394684 301 4228ft 138kts
02-Dec-18 22:10 33.855728 -118.428463 301 5016ft 188kts
02-Dec-18 22:11 33.835183 -118.468628 177 5009ft 240kts
02-Dec-18 22:12 33.773709 -118.450552 142 4979ft 261kts
02-Dec-18 22:13 33.763304 -118.391067 85 4999ft 262kts
02-Dec-18 22:14 33.765817 -118.331797 85 4997ft 263kts
02-Dec-18 22:15 33.768331 -118.273160 85 4998ft 263kts
02-Dec-18 22:16 33.795678 -118.235048 350 5003ft 230kts
02-Dec-18 22:17 33.828269 -118.268141 313 4999ft 220kts
02-Dec-18 22:18 33.860322 -118.304561 315 5005ft 220kts
02-Dec-18 22:19 33.890735 -118.336307 320 5006ft 220kts
02-Dec-18 22:20 33.921883 -118.367400 319 4997ft 220kts
02-Dec-18 22:21 33.955070 -118.400920 320 4996ft 219kts
02-Dec-18 22:22 33.989740 -118.435985 320 4996ft 218kts
02-Dec-18 22:23 34.027409 -118.467679 332 4996ft 218kts
02-Dec-18 22:24 34.069848 -118.495049 331 4995ft 218kts
02-Dec-18 22:25 34.111233 -118.521708 331 4999ft 218kts
02-Dec-18 22:26 34.152058 -118.548030 331 5000ft 218kts
02-Dec-18 22:27 34.189043 -118.571910 332 5009ft 218kts
02-Dec-18 22:28 34.224047 -118.585017 351 5011ft 219kts
02-Dec-18 22:29 34.278067 -118.592154 352 5009ft 219kts
02-Dec-18 22:30 34.313917 -118.596923 351 5008ft 219kts
02-Dec-18 22:31 34.362456 -118.603379 351 5009ft 217kts
02-Dec-18 22:32 34.396416 -118.607875 352 5006ft 211kts
02-Dec-18 22:33 34.444372 -118.614187 352 5007ft 208kts
02-Dec-18 22:34 34.478430 -118.618501 352 5014ft 202kts
02-Dec-18 22:35 34.510361 -118.583461 81 5021ft 225kts
02-Dec-18 22:36 34.511845 -118.537329 82 5002ft 224kts
02-Dec-18 22:37 34.514043 -118.479337 82 4987ft 225kts
02-Dec-18 22:38 34.516903 -118.419655 82 4989ft 226kts
02-Dec-18 22:39 34.494734 -118.374439 186 4988ft 223kts
02-Dec-18 22:40 34.477872 -118.412567 281 4994ft 188kts
02-Dec-18 22:41 34.480297 -118.457866 246 4978ft 208kts
02-Dec-18 22:42 34.446281 -118.489996 221 4990ft 221kts
02-Dec-18 22:43 34.406991 -118.509166 180 4995ft 226kts
02-Dec-18 22:44 34.364898 -118.505003 180 4664ft 215kts
02-Dec-18 22:45 34.325237 -118.501278 179 3686ft 213kts
02-Dec-18 22:46 34.287427 -118.497715 177 2724ft 210kts
02-Dec-18 22:47 34.252039 -118.494474 176 1814ft 203kts
02-Dec-18 22:48 34.220771 -118.491969 174 1297ft 185kts
02-Dec-18 22:49 34.187931 -118.486561 168 1688ft 184kts
02-Dec-18 22:50 34.152248 -118.475827 149 2682ft 185kts
02-Dec-18 22:51 34.120912 -118.463444 168 4273ft 191kts
02-Dec-18 22:52 34.088466 -118.455247 184 4596ft 203kts
02-Dec-18 22:53 34.056656 -118.455684 184 4606ft 212kts
02-Dec-18 22:54 34.014597 -118.478675 279 4608ft 173kts
02-Dec-18 22:55 34.018936 -118.523574 284 4601ft 171kts
02-Dec-18 22:56 34.026372 -118.582096 284 4603ft 177kts
02-Dec-18 22:57 34.032777 -118.632123 283 4605ft 202kts
02-Dec-18 22:58 34.040575 -118.693454 282 4604ft 212kts
02-Dec-18 22:59 34.046834 -118.742820 282 4603ft 215kts
02-Dec-18 23:00 34.070676 -118.802600 290 4612ft 215kts
02-Dec-18 23:01 34.082108 -118.862566 287 4612ft 218kts
02-Dec-18 23:02 34.091581 -118.916204 287 4612ft 220kts
02-Dec-18 23:03 34.097240 -118.948319 287 4611ft 220kts
02-Dec-18 23:04 34.097836 -118.951701 287 4611ft 220kts
02-Dec-18 23:06 34.140076 -119.076289 0 4610ft 0kts
02-Dec-18 23:07 34.182861 -119.115326 326 4610ft 190kts
02-Dec-18 23:08 34.207681 -119.091282 95 4611ft 218kts
02-Dec-18 23:09 34.165604 -119.062377 166 4613ft 236kts
02-Dec-18 23:10 34.153091 -119.058987 166 4612ft 237kts
02-Dec-18 23:11 34.125056 -119.051799 168 4611ft 237kts
02-Dec-18 23:12 34.138608 -119.019401 333 4614ft 186kts
02-Dec-18 23:13 34.173428 -119.052517 279 4611ft 191kts
02-Dec-18 23:14 34.138264 -119.074587 138 4612ft 213kts
02-Dec-18 23:15 34.134667 -119.025280 72 4612ft 193kts
02-Dec-18 23:16 34.141821 -118.978423 72 4608ft 190kts
02-Dec-18 23:17 34.148678 -118.932425 72 4609ft 183kts
02-Dec-18 23:18 34.155040 -118.888458 72 4611ft 179kts
02-Dec-18 23:19 34.164247 -118.843790 61 4612ft 170kts
02-Dec-18 23:20 34.177094 -118.800923 61 4609ft 164kts
02-Dec-18 23:21 34.188607 -118.761651 61 4609ft 156kts
02-Dec-18 23:22 34.196745 -118.729522 68 4344ft 124kts
02-Dec-18 23:23 34.199850 -118.700885 77 3659ft 127kts
02-Dec-18 23:24 34.200778 -118.672052 80 3402ft 115kts
02-Dec-18 23:25 34.200911 -118.648268 81 3412ft 116kts
02-Dec-18 23:26 34.200812 -118.625742 82 3410ft 116kts
02-Dec-18 23:27 34.200631 -118.603942 82 3391ft 117kts
02-Dec-18 23:28 34.200432 -118.581325 83 2967ft 121kts
02-Dec-18 23:29 34.200121 -118.555708 84 2385ft 117kts
02-Dec-18 23:30 34.191588 -118.534072 165 1709ft 119kts
02-Dec-18 23:31 34.176456 -118.521386 80 1500ft 91kts
02-Dec-18 23:32 34.176429 -118.504335 84 1516ft 90kts
02-Dec-18 23:33 34.180912 -118.490906 42 1253ft 74kts
02-Dec-18 23:34 34.190532 -118.487372 357 1082ft 75kts
02-Dec-18 23:35 34.200195 -118.488134 353 933ft 75kts
02-Dec-18 23:36 34.210177 -118.489153 354 807ft 67kts
02-Dec-18 23:37 34.213363 -118.488888 71 806ft 0kts
02-Dec-18 23:38 34.213363 -118.488888 71 806ft 0kts

Navigation Log

Ident Type
Flight plan parsing failed, navigation log unavailable